createdAt,value
2022-08-10T00:00:53.500Z,46.60
2022-08-10T00:03:21.193Z,46.60
2022-08-10T00:05:53.231Z,47.30
2022-08-10T00:08:24.014Z,46.70
2022-08-10T00:10:52.572Z,46.70
2022-08-10T00:13:20.246Z,46.60
2022-08-10T00:15:53.684Z,46.60
2022-08-10T00:18:35.040Z,46.60
2022-08-10T00:21:04.651Z,46.60
2022-08-10T00:23:32.393Z,46.60
2022-08-10T00:26:00.169Z,46.50
2022-08-10T00:28:27.853Z,46.60
2022-08-10T00:30:56.052Z,46.60
2022-08-10T00:33:25.143Z,46.60
2022-08-10T00:35:52.832Z,46.60
2022-08-10T00:38:20.522Z,46.60
2022-08-10T00:40:48.244Z,46.60
2022-08-10T00:43:23.380Z,46.60
2022-08-10T00:45:59.859Z,46.60
2022-08-10T00:48:30.151Z,46.60
2022-08-10T00:50:58.520Z,46.60
2022-08-10T00:53:26.367Z,46.50
2022-08-10T00:57:12.892Z,46.50
2022-08-10T00:58:41.853Z,46.60
2022-08-10T01:01:22.606Z,46.60
2022-08-10T01:04:58.001Z,46.60
2022-08-10T01:06:48.978Z,46.50
2022-08-10T01:09:19.118Z,46.50
2022-08-10T01:12:38.385Z,46.60
2022-08-10T01:14:42.171Z,46.50
2022-08-10T01:17:12.368Z,46.50
2022-08-10T01:19:49.043Z,46.60
2022-08-10T01:22:46.105Z,46.50
2022-08-10T01:25:35.591Z,46.50
2022-08-10T01:28:31.556Z,46.50
2022-08-10T01:31:01.848Z,46.50
2022-08-10T01:33:58.403Z,46.50
2022-08-10T01:36:20.275Z,46.50
2022-08-10T01:38:59.888Z,46.50
2022-08-10T01:41:28.838Z,46.50
2022-08-10T01:44:12.980Z,46.60
2022-08-10T01:46:45.368Z,46.60
2022-08-10T01:49:12.707Z,46.60
2022-08-10T01:51:43.528Z,46.50
2022-08-10T01:54:13.382Z,46.50
2022-08-10T01:56:43.219Z,46.50
2022-08-10T01:59:14.939Z,46.50
2022-08-10T02:01:47.700Z,46.60
2022-08-10T02:04:16.232Z,46.50
2022-08-10T02:06:45.308Z,46.60
2022-08-10T02:09:15.200Z,46.60
2022-08-10T02:12:07.784Z,46.60
2022-08-10T02:14:34.669Z,46.60
2022-08-10T02:17:04.689Z,46.50
2022-08-10T02:19:32.393Z,46.60
2022-08-10T02:22:09.470Z,46.60
2022-08-10T02:24:47.730Z,46.60
2022-08-10T02:27:15.463Z,46.50
2022-08-10T02:29:43.215Z,46.60
2022-08-10T02:32:20.136Z,46.50
2022-08-10T02:35:05.156Z,46.60
2022-08-10T02:37:32.833Z,46.60
2022-08-10T02:40:01.198Z,46.60
2022-08-10T02:45:17.970Z,46.50
2022-08-10T02:45:31.700Z,46.60
2022-08-10T02:48:02.544Z,46.60
2022-08-10T02:50:30.998Z,46.50
2022-08-10T02:53:04.856Z,46.50
2022-08-10T02:55:34.832Z,46.60
2022-08-10T02:58:13.293Z,46.60
2022-08-10T03:00:47.560Z,46.60
2022-08-10T03:03:20.263Z,46.60
2022-08-10T03:05:49.818Z,46.60
2022-08-10T03:08:19.412Z,46.60
2022-08-10T03:10:47.112Z,47.20
2022-08-10T03:13:14.840Z,46.70
2022-08-10T03:15:42.569Z,46.60
2022-08-10T03:18:10.308Z,46.50
2022-08-10T03:20:40.589Z,46.50
2022-08-10T03:23:11.366Z,46.60
2022-08-10T03:25:39.126Z,46.60
2022-08-10T03:28:07.039Z,46.60
2022-08-10T03:30:34.982Z,46.70
2022-08-10T03:33:03.548Z,46.70
2022-08-10T03:35:31.250Z,46.80
2022-08-10T03:38:00.430Z,46.70
2022-08-10T03:40:34.402Z,46.70
2022-08-10T03:43:14.971Z,46.80
2022-08-10T03:45:55.136Z,46.80
2022-08-10T03:48:24.194Z,46.80
2022-08-10T03:50:52.857Z,46.70
2022-08-10T03:53:25.111Z,46.70
2022-08-10T03:56:29.909Z,46.70
2022-08-10T03:58:57.464Z,47.00
2022-08-10T04:02:46.666Z,46.70
2022-08-10T04:04:15.383Z,46.70
2022-08-10T04:06:45.612Z,46.70
2022-08-10T04:09:14.694Z,46.70
2022-08-10T04:11:42.419Z,46.70
2022-08-10T04:14:38.013Z,46.70
2022-08-10T04:16:57.813Z,46.80
2022-08-10T04:19:25.492Z,46.70
2022-08-10T04:22:08.675Z,46.80
2022-08-10T04:24:37.793Z,46.80
2022-08-10T04:27:05.507Z,46.80
2022-08-10T04:29:33.303Z,46.80
2022-08-10T04:32:01.081Z,46.80
2022-08-10T04:34:31.671Z,46.80
2022-08-10T04:37:00.150Z,46.80
2022-08-10T04:39:28.009Z,46.80
2022-08-10T04:41:57.111Z,46.80
2022-08-10T04:44:24.939Z,46.80
2022-08-10T04:46:57.739Z,46.80
2022-08-10T04:49:54.768Z,46.90
2022-08-10T04:52:14.640Z,46.80
2022-08-10T04:54:42.393Z,46.90
2022-08-10T04:57:11.421Z,46.80
2022-08-10T04:59:39.231Z,46.80
2022-08-10T05:02:22.145Z,46.80
2022-08-10T05:04:54.604Z,46.80
2022-08-10T05:07:22.324Z,46.90
2022-08-10T05:10:02.358Z,46.80
2022-08-10T05:12:35.850Z,46.80
2022-08-10T05:15:05.923Z,46.90
2022-08-10T05:17:34.162Z,46.80
2022-08-10T05:20:06.450Z,46.80
2022-08-10T05:22:39.226Z,46.80
2022-08-10T05:25:08.721Z,46.80
2022-08-10T05:27:37.857Z,46.90
2022-08-10T05:30:06.951Z,46.90
2022-08-10T05:32:59.157Z,46.90
2022-08-10T05:35:22.973Z,46.80
2022-08-10T05:38:11.657Z,46.90
2022-08-10T05:40:39.428Z,46.90
2022-08-10T05:43:08.563Z,46.90
2022-08-10T05:46:18.431Z,46.90
2022-08-10T05:48:57.297Z,46.90
2022-08-10T05:51:12.662Z,46.90
2022-08-10T05:54:00.854Z,46.90
2022-08-10T05:56:28.059Z,46.90
2022-08-10T06:00:30.986Z,46.90
2022-08-10T06:02:30.692Z,46.90
2022-08-10T06:04:53.212Z,46.90
2022-08-10T06:07:21.864Z,47.00
2022-08-10T06:09:58.695Z,46.90
2022-08-10T06:12:30.082Z,47.00
2022-08-10T06:15:10.279Z,46.90
2022-08-10T06:18:02.100Z,47.00
2022-08-10T06:20:35.401Z,46.90
2022-08-10T06:23:04.998Z,46.90
2022-08-10T06:26:11.934Z,47.00
2022-08-10T06:28:21.128Z,47.00
2022-08-10T06:30:50.276Z,46.90
2022-08-10T06:33:18.052Z,46.90
2022-08-10T06:35:45.747Z,47.00
2022-08-10T06:38:13.402Z,46.90
2022-08-10T06:40:41.882Z,46.90
2022-08-10T06:43:10.816Z,46.90
2022-08-10T06:45:42.221Z,46.90
2022-08-10T06:48:14.985Z,47.00
2022-08-10T06:50:58.802Z,47.00
2022-08-10T06:53:52.112Z,47.00
2022-08-10T06:56:20.678Z,47.00
2022-08-10T06:59:08.209Z,47.00
2022-08-10T07:01:51.270Z,47.00
2022-08-10T07:04:32.426Z,47.00
2022-08-10T07:07:02.227Z,47.40
2022-08-10T07:09:30.169Z,47.00
2022-08-10T07:11:57.988Z,47.10
2022-08-10T07:14:37.374Z,47.10
2022-08-10T07:17:05.454Z,47.10
2022-08-10T07:19:34.491Z,47.10
2022-08-10T07:23:01.374Z,47.10
2022-08-10T07:25:07.191Z,47.00
2022-08-10T07:27:58.214Z,47.00
2022-08-10T07:30:22.702Z,47.00
2022-08-10T07:32:51.969Z,47.00
2022-08-10T07:35:21.150Z,46.90
2022-08-10T07:37:49.428Z,47.00
2022-08-10T07:40:17.834Z,46.90
2022-08-10T07:42:46.444Z,46.90
2022-08-10T07:45:14.353Z,46.90
2022-08-10T07:47:53.721Z,46.90
2022-08-10T07:50:25.308Z,46.80
2022-08-10T07:52:53.179Z,46.80
2022-08-10T07:56:07.522Z,46.80
2022-08-10T07:58:08.698Z,46.70
2022-08-10T08:00:36.524Z,46.70
2022-08-10T08:03:07.143Z,46.70
2022-08-10T08:05:58.173Z,46.70
2022-08-10T08:08:23.909Z,46.60
2022-08-10T08:10:51.645Z,46.60
2022-08-10T08:13:19.380Z,46.50
2022-08-10T08:16:17.941Z,46.50
2022-08-10T08:18:36.924Z,46.50
2022-08-10T08:24:06.197Z,46.40
2022-08-10T08:24:07.807Z,46.40
2022-08-10T08:26:42.200Z,46.40
2022-08-10T08:29:13.864Z,46.30
2022-08-10T08:32:01.206Z,46.30
2022-08-10T08:34:29.182Z,46.40
2022-08-10T08:36:59.835Z,46.30
2022-08-10T08:39:27.796Z,46.80
2022-08-10T08:42:04.169Z,46.20
2022-08-10T08:44:35.901Z,46.10
2022-08-10T08:48:05.689Z,46.10
2022-08-10T08:50:26.209Z,46.00
2022-08-10T08:53:00.443Z,46.00
2022-08-10T08:55:56.071Z,46.10
2022-08-10T08:58:31.386Z,46.10
2022-08-10T09:01:03.138Z,46.00
2022-08-10T09:03:57.529Z,46.10
2022-08-10T09:06:38.480Z,45.90
2022-08-10T09:09:33.382Z,46.00
2022-08-10T09:12:09.240Z,45.80
2022-08-10T09:14:39.233Z,45.90
2022-08-10T09:17:12.913Z,45.90
2022-08-10T09:19:44.377Z,45.90
2022-08-10T09:22:18.417Z,45.90
2022-08-10T09:24:50.919Z,45.90
2022-08-10T09:27:20.541Z,45.80
2022-08-10T09:29:54.496Z,45.90
2022-08-10T09:36:16.930Z,45.80
2022-08-10T09:36:22.101Z,45.80
2022-08-10T09:38:13.056Z,45.70
2022-08-10T09:40:57.703Z,45.50
2022-08-10T09:43:36.187Z,45.50
2022-08-10T09:46:11.879Z,45.60
2022-08-10T09:48:44.370Z,45.50
2022-08-10T09:51:44.783Z,45.50
2022-08-10T09:54:18.797Z,45.50
2022-08-10T09:56:50.809Z,45.50
2022-08-10T09:59:56.660Z,45.60
2022-08-10T10:02:15.934Z,45.60
2022-08-10T10:04:46.808Z,45.60
2022-08-10T10:07:17.607Z,45.70
2022-08-10T10:09:49.086Z,45.70
2022-08-10T10:12:28.004Z,45.70
2022-08-10T10:15:24.877Z,45.60
2022-08-10T10:18:32.272Z,45.70
2022-08-10T10:21:03.143Z,45.70
2022-08-10T10:24:19.723Z,45.80
2022-08-10T10:26:42.544Z,45.70
2022-08-10T10:29:56.242Z,45.80
2022-08-10T10:32:09.792Z,45.80
2022-08-10T10:34:41.837Z,45.80
2022-08-10T10:37:09.524Z,45.70
2022-08-10T10:39:37.290Z,45.80
2022-08-10T10:42:34.946Z,45.90
2022-08-10T10:45:07.870Z,45.90
2022-08-10T10:47:46.452Z,45.90
2022-08-10T10:50:17.808Z,46.20
2022-08-10T10:52:50.463Z,46.30
2022-08-10T10:55:20.759Z,46.90
2022-08-10T10:57:59.342Z,46.80
2022-08-10T11:00:34.711Z,46.70
2022-08-10T11:03:24.230Z,46.50
2022-08-10T11:05:56.037Z,46.40
2022-08-10T11:08:28.682Z,46.30
2022-08-10T11:10:59.064Z,46.30
2022-08-10T11:14:25.776Z,46.10
2022-08-10T11:16:24.332Z,46.10
2022-08-10T11:18:58.847Z,46.20
2022-08-10T11:21:39.619Z,46.10
2022-08-10T11:24:44.356Z,46.00
2022-08-10T11:27:02.051Z,46.10
2022-08-10T11:29:33.268Z,46.00
2022-08-10T11:32:04.014Z,46.00
2022-08-10T11:34:48.751Z,46.00
2022-08-10T11:37:26.856Z,46.30
2022-08-10T11:40:00.909Z,46.10
2022-08-10T11:42:36.359Z,46.00
2022-08-10T11:45:06.552Z,46.10
2022-08-10T11:47:38.967Z,46.00
2022-08-10T11:50:12.665Z,45.90
2022-08-10T11:52:42.379Z,46.30
2022-08-10T11:55:13.799Z,46.60
2022-08-10T11:57:53.869Z,46.40
2022-08-10T12:00:22.199Z,46.10
2022-08-10T12:02:53.431Z,46.20
2022-08-10T12:05:46.798Z,46.60
2022-08-10T12:10:01.845Z,46.60
2022-08-10T12:10:59.151Z,46.80
2022-08-10T12:13:29.223Z,46.70
2022-08-10T12:16:05.391Z,46.70
2022-08-10T12:18:37.587Z,47.30
2022-08-10T12:21:09.076Z,47.00
2022-08-10T12:24:02.354Z,47.00
2022-08-10T12:26:36.037Z,47.10
2022-08-10T12:29:09.621Z,47.10
2022-08-10T12:31:41.237Z,46.90
2022-08-10T12:34:18.008Z,46.70
2022-08-10T12:36:48.045Z,46.50
2022-08-10T12:39:17.469Z,46.40
2022-08-10T12:41:49.172Z,46.00
2022-08-10T12:44:19.132Z,46.10
2022-08-10T12:46:51.284Z,46.00
2022-08-10T12:49:21.149Z,46.00
2022-08-10T12:51:51.224Z,46.30
2022-08-10T12:54:32.076Z,46.10
2022-08-10T12:57:01.286Z,46.30
2022-08-10T12:59:29.141Z,46.20
2022-08-10T13:02:09.474Z,46.30
2022-08-10T13:04:40.080Z,46.20
2022-08-10T13:07:07.901Z,46.20
2022-08-10T13:09:56.704Z,46.30
2022-08-10T13:12:35.974Z,47.00
2022-08-10T13:15:45.279Z,46.60
2022-08-10T13:18:00.560Z,46.40
2022-08-10T13:20:31.225Z,46.60
2022-08-10T13:22:59.956Z,46.70
2022-08-10T13:25:30.927Z,46.90
2022-08-10T13:28:35.580Z,47.10
2022-08-10T13:30:50.950Z,47.00
2022-08-10T13:34:03.780Z,47.10
2022-08-10T13:36:15.605Z,47.00
2022-08-10T13:38:45.440Z,47.20
2022-08-10T13:41:13.243Z,47.40
2022-08-10T13:43:50.927Z,47.30
2022-08-10T13:46:22.532Z,47.60
2022-08-10T13:48:51.503Z,47.90
2022-08-10T13:51:21.503Z,48.10
2022-08-10T13:54:09.307Z,48.30
2022-08-10T13:56:37.050Z,48.60
2022-08-10T13:59:09.744Z,48.60
2022-08-10T14:01:37.773Z,49.10
2022-08-10T14:04:06.708Z,50.10
2022-08-10T14:06:36.547Z,49.50
2022-08-10T14:09:07.041Z,49.60
2022-08-10T14:11:34.798Z,49.60
2022-08-10T14:14:03.854Z,49.50
2022-08-10T14:16:31.610Z,49.70
2022-08-10T14:19:00.820Z,50.00
2022-08-10T14:21:29.337Z,50.10
2022-08-10T14:23:58.536Z,50.20
2022-08-10T14:26:28.901Z,52.00
2022-08-10T14:28:58.166Z,51.90
2022-08-10T14:31:33.348Z,51.40
2022-08-10T14:34:01.170Z,50.70
2022-08-10T14:36:37.761Z,50.60
2022-08-10T14:39:06.872Z,50.90
2022-08-10T14:42:01.784Z,51.20
2022-08-10T14:44:24.193Z,51.40
2022-08-10T14:46:54.400Z,51.80
2022-08-10T14:49:25.461Z,51.80
2022-08-10T14:51:53.827Z,51.90
2022-08-10T14:54:29.477Z,51.90
2022-08-10T14:56:57.777Z,52.30
2022-08-10T14:59:45.928Z,52.30
2022-08-10T15:02:40.185Z,52.30
2022-08-10T15:05:09.097Z,52.50
2022-08-10T15:07:37.642Z,52.30
2022-08-10T15:10:08.308Z,52.40
2022-08-10T15:12:38.321Z,52.70
2022-08-10T15:15:08.268Z,52.60
2022-08-10T15:17:39.407Z,52.60
2022-08-10T15:20:14.557Z,52.30
2022-08-10T15:24:04.580Z,52.20
2022-08-10T15:26:26.488Z,52.00
2022-08-10T15:29:22.182Z,51.70
2022-08-10T15:32:00.096Z,51.50
2022-08-10T15:34:45.384Z,52.30
2022-08-10T15:37:40.588Z,51.90
2022-08-10T15:40:25.482Z,51.20
2022-08-10T15:42:58.270Z,51.50
2022-08-10T15:45:26.281Z,51.20
2022-08-10T15:48:01.870Z,51.10
2022-08-10T15:50:33.525Z,50.80
2022-08-10T15:53:02.949Z,50.80
2022-08-10T15:55:42.394Z,50.50
2022-08-10T15:58:16.716Z,50.20
2022-08-10T16:00:47.264Z,50.10
2022-08-10T16:03:17.083Z,49.90
2022-08-10T16:06:02.008Z,49.80
2022-08-10T16:08:37.325Z,49.60
2022-08-10T16:11:26.767Z,49.50
2022-08-10T16:14:11.812Z,49.40
2022-08-10T16:16:39.990Z,49.00
2022-08-10T16:19:22.144Z,49.00
2022-08-10T16:21:58.155Z,48.90
2022-08-10T16:24:26.419Z,48.70
2022-08-10T16:26:54.706Z,48.90
2022-08-10T16:29:25.115Z,48.70
2022-08-10T16:31:54.123Z,48.70
2022-08-10T16:34:22.438Z,48.70
2022-08-10T16:36:53.236Z,48.60
2022-08-10T16:39:57.578Z,48.50
2022-08-10T16:42:11.008Z,48.50
2022-08-10T16:44:41.531Z,48.70
2022-08-10T16:47:09.893Z,48.50
2022-08-10T16:49:39.200Z,48.50
2022-08-10T16:52:07.470Z,48.60
2022-08-10T16:54:36.084Z,48.60
2022-08-10T16:57:05.156Z,48.50
2022-08-10T16:59:35.081Z,48.60
2022-08-10T17:02:05.727Z,48.60
2022-08-10T17:04:33.980Z,48.60
2022-08-10T17:07:04.308Z,48.40
2022-08-10T17:09:33.388Z,48.50
2022-08-10T17:12:05.689Z,48.50
2022-08-10T17:14:33.858Z,48.50
2022-08-10T17:17:06.921Z,48.40
2022-08-10T17:19:37.357Z,48.40
2022-08-10T17:22:10.853Z,48.50
2022-08-10T17:24:41.787Z,48.40
2022-08-10T17:28:04.627Z,48.50
2022-08-10T17:30:04.250Z,48.50
2022-08-10T17:32:44.762Z,48.50
2022-08-10T17:35:14.235Z,48.30
2022-08-10T17:37:46.304Z,48.40
2022-08-10T17:40:16.241Z,48.40
2022-08-10T17:42:46.768Z,48.50
2022-08-10T17:45:20.868Z,48.40
2022-08-10T17:48:08.174Z,48.50
2022-08-10T17:50:36.857Z,48.40
2022-08-10T17:53:06.695Z,48.40
2022-08-10T17:55:35.413Z,48.40
2022-08-10T17:58:03.653Z,48.50
2022-08-10T18:00:31.977Z,48.40
2022-08-10T18:02:59.880Z,48.30
2022-08-10T18:05:30.720Z,48.40
2022-08-10T18:07:58.478Z,48.30
2022-08-10T18:10:26.531Z,48.30
2022-08-10T18:12:54.928Z,48.20
2022-08-10T18:15:23.733Z,48.20
2022-08-10T18:17:59.278Z,48.30
2022-08-10T18:20:33.357Z,48.30
2022-08-10T18:23:01.059Z,48.30
2022-08-10T18:25:31.940Z,48.20
2022-08-10T18:28:03.989Z,48.20
2022-08-10T18:30:36.544Z,48.20
2022-08-10T18:33:05.355Z,48.10
2022-08-10T18:35:34.949Z,48.10
2022-08-10T18:38:03.048Z,48.10
2022-08-10T18:40:36.239Z,48.10
2022-08-10T18:43:09.993Z,48.10
2022-08-10T18:45:53.050Z,48.00
2022-08-10T18:48:22.653Z,48.10
2022-08-10T18:50:52.808Z,48.00
2022-08-10T18:53:23.832Z,48.00
2022-08-10T18:56:09.614Z,48.00
2022-08-10T18:58:49.651Z,48.00
2022-08-10T19:01:42.340Z,48.00
2022-08-10T19:04:24.856Z,47.80
2022-08-10T19:07:31.505Z,47.90
2022-08-10T19:10:09.572Z,47.90
2022-08-10T19:12:42.908Z,47.90
2022-08-10T19:15:18.964Z,48.00
2022-08-10T19:18:05.887Z,47.90
2022-08-10T19:20:38.803Z,47.90
2022-08-10T19:23:15.233Z,48.00
2022-08-10T19:26:41.466Z,48.00
2022-08-10T19:28:39.543Z,48.00
2022-08-10T19:31:10.982Z,48.00
2022-08-10T19:33:46.341Z,48.00
2022-08-10T19:36:17.583Z,48.10
2022-08-10T19:38:50.308Z,48.00
2022-08-10T19:41:25.430Z,48.00
2022-08-10T19:44:04.536Z,48.00
2022-08-10T19:46:37.104Z,48.00
2022-08-10T19:49:09.173Z,48.20
2022-08-10T19:51:44.310Z,48.30
2022-08-10T19:54:16.985Z,48.40
2022-08-10T19:56:50.698Z,48.50
2022-08-10T20:00:17.012Z,48.50
2022-08-10T20:02:21.035Z,48.50
2022-08-10T20:04:57.309Z,48.50
2022-08-10T20:07:30.999Z,48.50
2022-08-10T20:10:00.796Z,48.50
2022-08-10T20:12:35.593Z,48.50
2022-08-10T20:15:05.030Z,48.50
2022-08-10T20:17:51.396Z,48.40
2022-08-10T20:20:27.806Z,48.40
2022-08-10T20:23:02.954Z,48.40
2022-08-10T20:25:31.160Z,48.30
2022-08-10T20:28:06.190Z,48.30
2022-08-10T20:30:35.359Z,48.30
2022-08-10T20:33:08.343Z,48.20
2022-08-10T20:35:47.165Z,48.20
2022-08-10T20:38:17.351Z,48.10
2022-08-10T20:40:47.121Z,48.10
2022-08-10T20:43:20.133Z,47.90
2022-08-10T20:46:08.000Z,47.90
2022-08-10T20:48:39.230Z,47.90
2022-08-10T20:51:09.311Z,47.80
2022-08-10T20:53:42.415Z,47.70
2022-08-10T20:56:15.643Z,47.70
2022-08-10T20:58:55.046Z,47.70
2022-08-10T21:02:06.484Z,47.50
2022-08-10T21:04:19.758Z,47.50
2022-08-10T21:07:07.307Z,47.40
2022-08-10T21:10:00.378Z,47.10
2022-08-10T21:12:48.792Z,47.20
2022-08-10T21:15:24.887Z,47.00
2022-08-10T21:18:01.163Z,46.90
2022-08-10T21:20:36.002Z,47.00
2022-08-10T21:23:05.855Z,46.80
2022-08-10T21:25:43.374Z,46.80
2022-08-10T21:28:29.127Z,46.60
2022-08-10T21:31:28.219Z,46.60
2022-08-10T21:34:05.925Z,46.10
2022-08-10T21:36:33.721Z,46.30
2022-08-10T21:39:06.832Z,46.30
2022-08-10T21:41:59.730Z,46.10
2022-08-10T21:45:04.305Z,46.10
2022-08-10T21:48:17.355Z,45.80
2022-08-10T21:51:08.801Z,45.80
2022-08-10T21:53:56.902Z,45.80
2022-08-10T21:56:45.888Z,45.80
2022-08-10T21:59:44.551Z,45.70
2022-08-10T22:02:34.823Z,45.40
2022-08-10T22:05:21.383Z,45.60
2022-08-10T22:08:08.116Z,45.50
2022-08-10T22:10:59.677Z,45.40
2022-08-10T22:13:45.187Z,45.30
2022-08-10T22:16:40.454Z,45.20
2022-08-10T22:19:26.003Z,44.90
2022-08-10T22:22:26.799Z,45.00
2022-08-10T22:25:22.717Z,44.80
2022-08-10T22:28:17.413Z,44.60
2022-08-10T22:31:29.985Z,44.60
2022-08-10T22:34:14.512Z,44.50
2022-08-10T22:37:20.000Z,44.30
2022-08-10T22:40:14.653Z,43.80
2022-08-10T22:43:09.903Z,43.90
2022-08-10T22:45:56.811Z,44.00
2022-08-10T22:48:42.168Z,43.90
2022-08-10T22:51:12.587Z,43.80
2022-08-10T22:54:01.812Z,43.60
2022-08-10T22:56:47.181Z,43.40
2022-08-10T22:59:26.976Z,43.50
2022-08-10T23:02:07.645Z,43.30
2022-08-10T23:04:42.767Z,43.30
2022-08-10T23:07:24.397Z,43.20
2022-08-10T23:10:02.448Z,42.80
2022-08-10T23:12:34.263Z,42.60
2022-08-10T23:15:19.923Z,42.90
2022-08-10T23:18:08.878Z,42.80
2022-08-10T23:20:37.400Z,42.60
2022-08-10T23:23:09.684Z,42.70
2022-08-10T23:25:56.176Z,42.60
2022-08-10T23:28:39.329Z,42.40
2022-08-10T23:31:12.877Z,42.40
2022-08-10T23:33:40.657Z,42.40
2022-08-10T23:36:34.464Z,42.20
2022-08-10T23:39:19.963Z,42.10
2022-08-10T23:41:46.729Z,42.00
2022-08-10T23:44:21.203Z,41.90
2022-08-10T23:46:49.020Z,41.90
2022-08-10T23:49:16.716Z,41.80
2022-08-10T23:51:55.636Z,41.70
2022-08-10T23:54:24.561Z,41.50
2022-08-10T23:56:55.279Z,41.50
2022-08-10T23:59:23.849Z,41.30
